Pagrindinis puslapis
METAR-TAF:

METAR-TAF

Oro uostai :

Džida, Saudo Arabija

platuma: 21-42N, ilguma: 039-11E, Aukštis: 15 m

Dabartinis oras

Ataskaita buvo paskelbta 50 minutes, ne 09:00 UTC
Vėjas 12 kt iš Šiaurės/Šiaurės Vakarų
Temperatūra 25°C
Drėgmė 41%
Slėgis 1018 hPa
Matomumas 10 km arba daugiau
nėra debesų žemiau 1500 m ir nėra kamuolinių lietaus debesų

METAR: OEJN 200900Z 33012KT CAVOK 25/11 Q1018 NOSIG

Laikas: 12:50 (09:50 UTC)

Prognozė

Ataskaita buvo paskelbta 4 valandos ir 50 minutes, ne 05:00 UTC
Prognozė galioja nuo 20 metu 06 UTC su 21 metu 12 UTC
Vėjas 15 kt iš Šiaurės/Šiaurės Vakarų
Matomumas 10 km arba daugiau
nėra debesų žemiau 1500 m ir nėra kamuolinių lietaus debesų
Tapsmas
nuo 20 metu 19 UTC su 20 metu 21 UTC
Vėjas 8 kt iš Šiaurės/Šiaurės Rytų

TAF: OEJN 200500Z 2006/2112 34015KT CAVOK BECMG 2019/2021 03008KT

Orai ataskaitas ir orų prognozės (METAR, TAF).

turimą stotys yra geltonos ir raudonos taškus žemėlapyje.

Perkelti pele per norėdami pamatyti stoties vardą.

Tada spustelėkite, norėdami matyti oro stebėjimo ir prognozės.

Norėdami pakeisti žemėlapį: spustelėkite ant žalios mygtukų su juodo kryžiaus žemyn,; žalią mygtuką su brūkšneliu, jei norite nutolinti; arba žalių rodyklių gretimoms žemėlapius.


METAR-TAF: